»·PEaware :: N918PB KBIH-KVNY

N918PB :: KBIH-KVNY

FLIGHT INFORMATION

Flight Status: Arrived
Operator: Privately registered:
United States
More flights under this callsign
Pilot: Lee W. (44)
Aircraft: PIPER PA-42-1000 CHEYENNE 400
(PAY4)
More flights by this aircraft type
Origin: KBIH Bishop
United States
Destination: KVNY Van Nuys
United States
More flights between these airports :: More routes between these airports
Route: + PMD SAUGS VNY
File this flight plan on PilotEdge
Remarks:
Altitude:
(Current/Filed)
24,000ft
Speed:
(Current/Filed)
300kts
Departed: 31-Jan-12 08:46 PM
Arrived: 31-Jan-12 09:41 PM
Distance/Time
Traveled:
190nm/0:55
Distance/Time
To Go:
Arrived

Flight Plot

Page will automatically refresh every two minutes.


Map Options




Map Legend


Flown Route
Filed Route
Departure Airport
Arrival Airport
Navaid (VOR, NDB)
Fix

Horizontal Profiles

Position Reports

Time Latitude Longitude Heading Altitude Ground
Speed
31-Jan-12 20:44 37.380330 -118.362599 16 4129ft 13kts
31-Jan-12 20:45 37.371254 -118.361520 183 4129ft 121kts
31-Jan-12 20:46 37.330470 -118.353231 165 5297ft 176kts
31-Jan-12 20:47 37.278704 -118.338520 167 6532ft 201kts
31-Jan-12 20:48 37.223035 -118.323326 167 7734ft 209kts
31-Jan-12 20:49 37.165691 -118.307756 167 8925ft 212kts
31-Jan-12 20:50 37.108227 -118.292183 167 10062ft 213kts
31-Jan-12 20:51 37.050279 -118.276503 167 11281ft 213kts
31-Jan-12 20:52 37.002118 -118.263489 167 12275ft 213kts
31-Jan-12 20:54 36.877423 -118.229870 167 14851ft 211kts
31-Jan-12 20:55 36.831150 -118.217424 167 16168ft 197kts
31-Jan-12 20:56 36.780281 -118.203769 167 17922ft 181kts
31-Jan-12 20:57 36.732811 -118.191043 167 19691ft 168kts
31-Jan-12 20:58 36.688905 -118.179281 167 21452ft 155kts
31-Jan-12 20:59 36.648923 -118.168577 167 23198ft 140kts
31-Jan-12 21:00 36.609000 -118.157903 167 24011ft 176kts
31-Jan-12 21:01 36.554141 -118.143251 167 24003ft 225kts
31-Jan-12 21:02 36.489710 -118.126059 167 23997ft 246kts
31-Jan-12 21:03 36.421015 -118.107706 171 24018ft 262kts
31-Jan-12 21:04 36.349043 -118.088733 169 24024ft 285kts
31-Jan-12 21:05 36.269761 -118.067666 167 24022ft 296kts
31-Jan-12 21:06 36.189305 -118.044985 158 24024ft 297kts
31-Jan-12 21:07 36.107570 -118.039503 180 24040ft 297kts
31-Jan-12 21:08 36.024812 -118.040885 180 24041ft 298kts
31-Jan-12 21:09 35.941680 -118.042263 180 24041ft 298kts
31-Jan-12 21:10 35.858639 -118.043636 181 24041ft 299kts
31-Jan-12 21:11 35.775850 -118.045009 181 24042ft 295kts
31-Jan-12 21:12 35.694560 -118.046378 179 24039ft 289kts
31-Jan-12 21:13 35.614149 -118.047677 178 24039ft 289kts
31-Jan-12 21:14 35.532551 -118.048998 178 24040ft 292kts
31-Jan-12 21:15 35.450952 -118.050315 178 24040ft 292kts
31-Jan-12 21:16 35.370919 -118.051609 179 24039ft 288kts
31-Jan-12 21:17 35.295106 -118.052751 182 24082ft 281kts
31-Jan-12 21:18 35.221398 -118.053940 188 24083ft 258kts
31-Jan-12 21:19 35.147098 -118.055269 191 23398ft 272kts
31-Jan-12 21:20 35.070879 -118.056540 191 22255ft 277kts
31-Jan-12 21:21 34.993476 -118.057803 191 21077ft 278kts
31-Jan-12 21:22 34.916330 -118.059050 191 19902ft 276kts
31-Jan-12 21:23 34.840239 -118.060274 190 18731ft 271kts
31-Jan-12 21:24 34.765469 -118.061477 190 17562ft 266kts
31-Jan-12 21:25 34.692993 -118.062617 190 16380ft 246kts
31-Jan-12 21:26 34.632083 -118.074524 235 14953ft 205kts
31-Jan-12 21:27 34.606622 -118.138165 246 13582ft 231kts
31-Jan-12 21:28 34.582495 -118.210436 246 12189ft 231kts
31-Jan-12 21:29 34.558407 -118.282661 246 10781ft 230kts
31-Jan-12 21:30 34.534663 -118.353707 246 9377ft 227kts
31-Jan-12 21:32 34.499125 -118.483851 253 6466ft 179kts
31-Jan-12 21:33 34.472702 -118.513855 179 5316ft 180kts
31-Jan-12 21:34 34.424223 -118.510399 175 5075ft 163kts
31-Jan-12 21:35 34.379533 -118.506313 175 4899ft 162kts
31-Jan-12 21:36 34.336981 -118.502322 175 3894ft 158kts
31-Jan-12 21:37 34.308310 -118.499623 175 3190ft 156kts
31-Jan-12 21:38 34.267078 -118.495743 175 2164ft 154kts
31-Jan-12 21:39 34.226904 -118.491962 175 1157ft 128kts
31-Jan-12 21:40 34.205741 -118.490093 185 807ft 23kts

Navigation Log

Ident Type
Flight plan parsing failed, navigation log unavailable